Time;durP1;ratioP1;P1;durP2;ratioP2;P2;SDS_P1;SDS_P2;PMS_P1;PMS_P2;Temp;Humidity;BMP_temperature;BMP_pressure;BME280_temperature;BME280_humidity;BME280_pressure;Samples;Min_cycle;Max_cycle;Signal;HPM_P1;HPM_P2
2021/12/07 00:00:20;;;;;;;3.40;1.90;;;5.80;99.90;;;;;;5116317;28;20579;-76
2021/12/07 00:02:46;;;;;;;3.53;2.10;;;5.80;99.90;;;;;;5111909;28;20167;-78
2021/12/07 00:05:12;;;;;;;2.77;1.97;;;6.00;99.90;;;;;;5077605;28;20171;-82
2021/12/07 00:07:42;;;;;;;2.03;1.60;;;6.00;99.90;;;;;;5112083;28;20178;-76
2021/12/07 00:10:08;;;;;;;3.87;2.43;;;6.00;99.90;;;;;;5112552;28;20221;-81
2021/12/07 00:12:38;;;;;;;2.27;1.80;;;6.10;99.90;;;;;;5094894;28;20179;-77
2021/12/07 00:15:06;;;;;;;3.83;1.80;;;6.10;99.90;;;;;;5095155;28;20174;-80
2021/12/07 00:17:33;;;;;;;2.00;1.60;;;5.90;99.90;;;;;;5094494;28;20186;-77
2021/12/07 00:20:00;;;;;;;1.80;1.60;;;6.00;99.90;;;;;;5095360;28;20591;-77
2021/12/07 00:22:26;;;;;;;3.60;1.80;;;6.20;99.90;;;;;;5094432;28;20585;-77
2021/12/07 00:24:53;;;;;;;2.50;1.93;;;6.00;99.90;;;;;;5111342;28;20680;-76
2021/12/07 00:27:19;;;;;;;2.93;2.00;;;6.00;99.90;;;;;;5095065;28;20179;-77
2021/12/07 00:29:45;;;;;;;4.37;1.83;;;6.00;99.90;;;;;;5112695;28;20195;-81
2021/12/07 00:34:58;;;;;;;1.90;1.60;;;6.10;99.90;;;;;;5112301;28;20171;-81
2021/12/07 00:37:26;;;;;;;2.67;2.07;;;6.10;99.90;;;;;;5112403;28;20171;-82
2021/12/07 00:39:54;;;;;;;3.00;1.80;;;6.20;99.90;;;;;;5078100;28;20187;-77
2021/12/07 00:42:20;;;;;;;2.50;1.90;;;6.10;99.90;;;;;;5110715;28;20178;-77
2021/12/07 00:44:46;;;;;;;2.43;1.87;;;6.10;99.90;;;;;;5110791;28;20686;-81
2021/12/07 00:47:12;;;;;;;2.37;1.80;;;6.30;99.90;;;;;;5111655;28;20246;-81
2021/12/07 00:49:38;;;;;;;2.77;1.90;;;5.90;99.90;;;;;;5094643;28;20528;-82
2021/12/07 00:52:05;;;;;;;3.87;1.97;;;5.80;99.90;;;;;;5112346;28;20673;-76
2021/12/07 00:54:31;;;;;;;3.23;2.20;;;5.80;99.90;;;;;;5110681;28;20175;-80
2021/12/07 00:56:57;;;;;;;2.73;1.97;;;5.90;99.90;;;;;;5098020;28;20176;-80
2021/12/07 00:59:23;;;;;;;2.70;1.83;;;6.10;99.90;;;;;;5112185;28;20592;-81
2021/12/07 01:01:50;;;;;;;2.93;2.13;;;5.90;99.90;;;;;;5111776;28;20183;-78
2021/12/07 01:04:16;;;;;;;2.80;1.90;;;5.50;99.90;;;;;;5110650;28;20250;-82
2021/12/07 01:06:49;;;;;;;3.07;2.10;;;5.50;99.90;;;;;;5111616;28;20251;-78
2021/12/07 01:25:47;;;;;;;2.83;2.17;;;5.50;99.90;;;;;;5116157;28;20191;-80
2021/12/07 01:28:25;;;;;;;2.73;1.80;;;5.60;99.90;;;;;;5097743;28;20189;-77
2021/12/07 01:31:17;;;;;;;2.73;2.10;;;5.60;99.90;;;;;;5082575;28;20302;-82
2021/12/07 01:34:47;;;;;;;3.60;2.37;;;5.50;99.90;;;;;;5115963;28;20203;-81
2021/12/07 01:39:48;;;;;;;3.07;2.20;;;5.20;99.90;;;;;;5114394;28;20191;-81
2021/12/07 01:53:17;;;;;;;4.00;1.97;;;5.20;99.90;;;;;;5121057;27;20174;-76
2021/12/07 02:01:07;;;;;;;1.97;1.70;;;5.40;99.90;;;;;;5135907;27;20227;-76
2021/12/07 02:03:33;;;;;;;2.17;1.50;;;5.60;99.90;;;;;;5118077;27;20867;-82
2021/12/07 02:05:59;;;;;;;2.60;2.10;;;5.60;99.90;;;;;;5135290;27;20186;-81
2021/12/07 02:08:25;;;;;;;2.40;1.70;;;5.70;99.90;;;;;;5119474;27;20190;-76
2021/12/07 02:10:56;;;;;;;2.57;1.63;;;5.80;99.90;;;;;;5078933;28;20211;-77
2021/12/07 02:15:56;;;;;;;2.13;1.63;;;5.60;99.90;;;;;;5114352;27;20167;-80
2021/12/07 02:18:23;;;;;;;2.83;1.83;;;5.40;99.90;;;;;;5115281;28;20175;-78
2021/12/07 02:20:50;;;;;;;2.70;1.97;;;5.40;99.90;;;;;;5096243;28;20231;-78
2021/12/07 02:23:17;;;;;;;5.07;2.03;;;5.50;99.90;;;;;;5114451;28;20183;-81
2021/12/07 02:25:43;;;;;;;3.23;2.20;;;5.40;99.90;;;;;;5096845;28;20203;-81
2021/12/07 02:28:14;;;;;;;2.10;1.60;;;5.40;99.90;;;;;;5115543;28;20179;-81
2021/12/07 02:30:41;;;;;;;1.83;1.33;;;5.40;99.90;;;;;;5113602;28;20222;-77
2021/12/07 02:33:09;;;;;;;2.13;1.70;;;5.50;99.90;;;;;;5096507;28;20525;-76
2021/12/07 02:35:35;;;;;;;2.17;1.67;;;5.60;99.90;;;;;;5113520;28;20250;-81
2021/12/07 02:38:02;;;;;;;1.93;1.57;;;5.50;99.90;;;;;;5114366;28;20175;-81
2021/12/07 02:40:28;;;;;;;2.70;1.77;;;5.70;99.90;;;;;;5114460;28;20187;-82
2021/12/07 02:42:53;;;;;;;1.80;1.30;;;5.50;99.90;;;;;;5114126;28;20264;-79
2021/12/07 02:45:23;;;;;;;2.37;1.83;;;5.40;99.90;;;;;;5115416;28;20182;-82
2021/12/07 02:47:50;;;;;;;1.97;1.47;;;5.50;99.90;;;;;;5113696;28;20175;-78
2021/12/07 02:50:17;;;;;;;1.60;1.50;;;5.60;99.90;;;;;;5114470;28;20286;-81
2021/12/07 02:52:44;;;;;;;2.00;1.47;;;5.50;99.90;;;;;;5113169;28;20556;-77
2021/12/07 02:55:11;;;;;;;2.70;1.67;;;5.60;99.90;;;;;;5079617;28;20215;-81
2021/12/07 02:57:37;;;;;;;1.97;1.40;;;5.60;99.90;;;;;;5096190;28;20178;-81
2021/12/07 03:00:13;;;;;;;2.23;1.50;;;5.80;99.90;;;;;;5113904;28;20262;-78
2021/12/07 03:02:47;;;;;;;1.83;1.50;;;5.50;99.90;;;;;;5097178;28;20224;-78
2021/12/07 03:05:38;;;;;;;2.80;1.50;;;5.60;99.90;;;;;;5113810;28;20186;-80
2021/12/07 03:08:29;;;;;;;1.53;1.13;;;5.70;99.90;;;;;;5115028;28;20175;-79
2021/12/07 03:27:22;;;;;;;1.37;0.97;;;5.60;99.90;;;;;;5126484;27;20260;-80
2021/12/07 03:29:48;;;;;;;1.13;1.00;;;5.70;99.90;;;;;;5133349;27;20207;-77
2021/12/07 03:32:15;;;;;;;3.87;1.00;;;5.70;99.90;;;;;;5100494;28;20195;-79
2021/12/07 03:34:41;;;;;;;1.70;1.30;;;5.80;99.90;;;;;;5093298;28;20175;-78
2021/12/07 03:37:07;;;;;;;1.43;1.07;;;5.80;99.90;;;;;;5111344;28;20185;-80
2021/12/07 03:39:32;;;;;;;1.37;1.20;;;5.90;99.90;;;;;;5094724;28;20216;-77
2021/12/07 03:41:58;;;;;;;2.30;1.17;;;5.90;99.90;;;;;;5104662;28;20631;-79
2021/12/07 03:44:24;;;;;;;0.80;0.80;;;5.70;99.90;;;;;;5114262;28;20680;-80
2021/12/07 03:46:50;;;;;;;1.23;1.03;;;5.80;99.90;;;;;;5113545;28;20181;-82
2021/12/07 03:49:16;;;;;;;5.23;0.80;;;5.80;99.90;;;;;;5112338;28;20204;-78
2021/12/07 03:51:42;;;;;;;1.00;0.87;;;5.80;99.90;;;;;;5095867;28;20539;-80
2021/12/07 03:54:07;;;;;;;1.23;0.97;;;5.80;99.90;;;;;;5094999;28;20232;-77
2021/12/07 03:56:33;;;;;;;1.27;1.00;;;5.80;99.90;;;;;;5095183;28;20171;-76
2021/12/07 03:58:59;;;;;;;0.80;0.80;;;5.60;99.90;;;;;;5111592;28;20211;-76
2021/12/07 04:01:26;;;;;;;1.20;0.90;;;5.70;99.90;;;;;;5077417;28;20191;-80
2021/12/07 04:03:53;;;;;;;2.07;1.03;;;5.80;99.90;;;;;;5113290;28;20191;-79
2021/12/07 04:06:20;;;;;;;1.40;0.80;;;5.70;99.90;;;;;;5112074;28;20249;-80
2021/12/07 04:08:46;;;;;;;1.43;0.93;;;5.90;99.90;;;;;;5094654;28;20270;-80
2021/12/07 04:11:13;;;;;;;1.17;0.70;;;5.90;99.90;;;;;;5095234;28;20231;-80
2021/12/07 04:13:40;;;;;;;1.77;1.00;;;6.00;99.90;;;;;;5112436;28;20182;-77
2021/12/07 04:16:08;;;;;;;1.40;0.87;;;6.00;99.90;;;;;;5111796;28;20175;-77
2021/12/07 04:18:34;;;;;;;0.70;0.70;;;5.80;99.90;;;;;;5111965;28;20226;-80
2021/12/07 04:21:03;;;;;;;1.93;0.97;;;5.80;99.90;;;;;;5112165;28;20653;-78
2021/12/07 04:23:34;;;;;;;0.60;0.60;;;5.90;99.90;;;;;;5079079;28;20205;-76
2021/12/07 04:26:02;;;;;;;2.47;0.80;;;5.80;99.90;;;;;;5111090;28;20198;-78
2021/12/07 04:28:28;;;;;;;2.53;0.83;;;5.80;99.90;;;;;;5112483;28;20240;-77
2021/12/07 04:30:53;;;;;;;0.90;0.60;;;5.90;99.90;;;;;;5094501;28;20238;-77
2021/12/07 04:33:19;;;;;;;3.17;0.90;;;6.10;99.90;;;;;;5113056;28;20177;-75
2021/12/07 04:35:49;;;;;;;1.00;0.60;;;6.00;99.90;;;;;;5098579;28;20232;-77
2021/12/07 04:38:16;;;;;;;3.10;0.80;;;6.10;99.90;;;;;;5062079;28;20175;-81
2021/12/07 04:40:43;;;;;;;2.00;0.63;;;6.10;99.90;;;;;;5112373;28;20198;-81
2021/12/07 04:43:10;;;;;;;0.63;0.50;;;6.20;99.90;;;;;;5094583;28;20175;-77
2021/12/07 04:58:41;;;;;;;1.47;0.60;;;6.30;99.90;;;;;;5069566;28;20270;-80
2021/12/07 05:01:10;;;;;;;0.90;0.60;;;6.30;99.90;;;;;;5099590;28;20202;-79
2021/12/07 05:03:38;;;;;;;1.70;0.90;;;6.20;99.90;;;;;;5066081;28;20202;-77
2021/12/07 05:06:06;;;;;;;0.90;0.63;;;6.30;99.90;;;;;;5098065;28;20183;-76
2021/12/07 05:18:59;;;;;;;1.90;0.87;;;5.90;99.90;;;;;;5098686;28;20278;-80
2021/12/07 05:24:17;;;;;;;1.03;0.57;;;5.80;99.90;;;;;;5116695;28;20186;-77
2021/12/07 05:37:46;;;;;;;1.30;0.73;;;5.60;99.90;;;;;;5114528;28;20171;-80
2021/12/07 05:40:15;;;;;;;2.73;0.80;;;5.30;99.90;;;;;;5115125;27;20194;-81
2021/12/07 05:42:42;;;;;;;1.00;0.70;;;5.30;99.90;;;;;;5115522;28;20198;-80
2021/12/07 05:45:11;;;;;;;1.10;0.93;;;5.50;99.90;;;;;;5098266;28;20178;-80
2021/12/07 05:47:37;;;;;;;3.67;0.70;;;5.40;99.90;;;;;;5114692;28;20178;-77
2021/12/07 05:50:05;;;;;;;1.17;0.80;;;5.70;99.90;;;;;;5116165;28;20685;-80
2021/12/07 05:52:31;;;;;;;1.77;0.83;;;5.70;99.90;;;;;;5114572;28;20221;-79
2021/12/07 05:54:56;;;;;;;0.87;0.57;;;5.80;99.90;;;;;;5096719;28;20171;-77
2021/12/07 05:57:22;;;;;;;2.77;1.00;;;5.90;99.90;;;;;;5115201;28;20194;-79
2021/12/07 05:59:48;;;;;;;2.60;1.20;;;5.90;99.90;;;;;;5082107;28;20190;-80
2021/12/07 06:02:14;;;;;;;1.23;0.83;;;6.00;99.90;;;;;;5116083;28;20672;-77
2021/12/07 06:04:40;;;;;;;2.40;0.80;;;6.00;99.90;;;;;;5113785;28;20218;-80
2021/12/07 06:07:08;;;;;;;1.13;0.63;;;5.90;99.90;;;;;;5115733;28;20175;-76
2021/12/07 06:09:33;;;;;;;1.60;1.00;;;6.00;99.90;;;;;;5098905;28;20206;-81
2021/12/07 06:11:59;;;;;;;4.13;1.10;;;6.00;99.90;;;;;;5114424;28;20178;-77
2021/12/07 06:14:32;;;;;;;3.03;1.10;;;6.00;99.90;;;;;;5113790;28;20194;-81
2021/12/07 06:16:58;;;;;;;4.63;1.20;;;6.10;99.90;;;;;;5096488;28;20160;-78
2021/12/07 06:19:24;;;;;;;1.87;0.80;;;6.00;99.90;;;;;;5080814;28;20179;-77
2021/12/07 06:21:49;;;;;;;3.27;1.10;;;6.10;99.90;;;;;;5077961;28;20172;-77
2021/12/07 06:24:19;;;;;;;3.20;1.00;;;6.00;99.90;;;;;;5093712;28;20170;-78
2021/12/07 06:26:45;;;;;;;1.63;1.00;;;5.90;99.90;;;;;;5093759;28;20530;-77
2021/12/07 06:29:14;;;;;;;2.13;0.80;;;5.90;99.90;;;;;;5093813;28;20207;-77
2021/12/07 06:31:54;;;;;;;2.60;0.80;;;6.10;99.90;;;;;;5063731;28;20192;-79
2021/12/07 06:34:31;;;;;;;5.13;0.97;;;6.20;99.90;;;;;;5073744;28;20223;-77
2021/12/07 06:37:01;;;;;;;2.10;0.87;;;6.10;99.90;;;;;;5105521;28;20187;-78
2021/12/07 06:39:35;;;;;;;2.47;0.97;;;6.20;99.90;;;;;;5106917;28;20207;-79
2021/12/07 06:42:02;;;;;;;2.50;0.97;;;6.30;99.90;;;;;;5061953;28;20271;-78
2021/12/07 06:44:28;;;;;;;3.10;0.80;;;6.50;99.90;;;;;;5078061;28;20275;-81
2021/12/07 06:46:56;;;;;;;3.17;0.90;;;6.50;99.90;;;;;;5060394;28;20275;-78
2021/12/07 06:49:22;;;;;;;4.90;1.40;;;6.50;99.90;;;;;;5096966;28;20233;-80
2021/12/07 06:51:51;;;;;;;3.93;1.00;;;6.50;99.90;;;;;;5098373;28;20172;-77
2021/12/07 06:54:20;;;;;;;3.67;1.40;;;6.40;99.90;;;;;;5091624;28;20180;-80
2021/12/07 06:56:51;;;;;;;5.67;1.03;;;6.50;99.90;;;;;;5102002;28;20171;-79
2021/12/07 06:59:16;;;;;;;2.07;0.80;;;6.40;99.90;;;;;;5097189;28;20179;-80
2021/12/07 07:01:44;;;;;;;2.67;0.90;;;6.50;99.90;;;;;;5099850;28;20175;-78
2021/12/07 07:04:14;;;;;;;2.50;1.10;;;6.60;99.90;;;;;;5113994;28;20186;-83
2021/12/07 07:06:42;;;;;;;1.73;0.90;;;6.60;99.90;;;;;;5097853;28;20182;-82
2021/12/07 07:09:09;;;;;;;3.70;1.00;;;6.50;99.90;;;;;;5097724;28;20216;-83
2021/12/07 07:11:39;;;;;;;1.80;0.80;;;6.50;99.90;;;;;;5102915;28;20184;-81
2021/12/07 07:14:05;;;;;;;3.90;1.03;;;6.30;99.90;;;;;;5058130;28;20188;-79
2021/12/07 07:16:31;;;;;;;2.53;0.90;;;6.40;99.90;;;;;;5091641;28;20251;-78
2021/12/07 07:18:58;;;;;;;3.43;0.90;;;6.60;99.90;;;;;;5091223;28;20176;-79
2021/12/07 07:21:24;;;;;;;0.93;0.87;;;6.60;99.90;;;;;;5106118;28;20170;-79
2021/12/07 07:23:52;;;;;;;5.77;1.03;;;6.20;99.90;;;;;;5098161;28;20186;-79
2021/12/07 07:26:18;;;;;;;5.67;1.20;;;6.00;99.90;;;;;;5112124;28;20199;-80
2021/12/07 07:28:44;;;;;;;2.67;1.30;;;6.20;99.90;;;;;;5108453;28;20175;-78
2021/12/07 07:31:11;;;;;;;3.43;1.43;;;6.40;99.90;;;;;;5090530;28;20206;-79
2021/12/07 07:33:38;;;;;;;3.30;1.00;;;6.40;99.90;;;;;;5091593;28;20176;-78
2021/12/07 07:36:05;;;;;;;7.20;3.70;;;6.30;99.90;;;;;;5055930;28;20180;-79
2021/12/07 07:38:30;;;;;;;7.20;3.20;;;6.40;99.90;;;;;;5072932;28;20725;-82
2021/12/07 07:40:56;;;;;;;4.30;1.77;;;6.40;99.90;;;;;;5072366;28;20211;-78
2021/12/07 07:43:22;;;;;;;2.20;1.03;;;6.50;99.90;;;;;;5072927;28;20176;-79
2021/12/07 07:45:50;;;;;;;3.57;1.20;;;6.40;99.90;;;;;;5090954;28;20689;-80
2021/12/07 07:48:18;;;;;;;4.93;1.07;;;6.30;99.90;;;;;;5075490;28;20191;-82
2021/12/07 07:50:44;;;;;;;4.40;1.20;;;6.30;99.90;;;;;;5106709;28;20227;-79
2021/12/07 07:53:10;;;;;;;7.57;3.63;;;6.30;99.90;;;;;;5111207;28;20255;-77
2021/12/07 07:55:39;;;;;;;6.17;2.90;;;6.40;99.90;;;;;;5077055;28;20532;-81
2021/12/07 07:58:06;;;;;;;4.30;2.13;;;6.60;99.90;;;;;;5111848;28;20175;-81
2021/12/07 08:00:34;;;;;;;3.80;1.33;;;6.70;99.90;;;;;;5093485;28;20689;-81
2021/12/07 08:03:00;;;;;;;3.30;1.50;;;6.70;99.90;;;;;;5094962;28;20183;-82
2021/12/07 08:05:27;;;;;;;3.10;1.90;;;6.80;99.90;;;;;;5113082;28;20186;-79
2021/12/07 08:07:53;;;;;;;5.50;1.70;;;7.00;99.90;;;;;;5096367;28;20175;-79
2021/12/07 08:10:28;;;;;;;1.80;1.20;;;7.00;99.90;;;;;;5115114;28;20702;-81
2021/12/07 08:12:57;;;;;;;2.47;1.23;;;7.00;99.90;;;;;;5081699;28;20262;-80
2021/12/07 08:15:26;;;;;;;2.30;1.20;;;6.80;99.90;;;;;;5097993;28;20183;-80
2021/12/07 08:17:52;;;;;;;7.90;1.90;;;6.90;99.90;;;;;;5082038;28;20175;-79
2021/12/07 08:20:17;;;;;;;3.70;1.23;;;7.10;99.90;;;;;;5115659;28;20182;-83
2021/12/07 08:22:44;;;;;;;4.07;1.10;;;7.10;99.90;;;;;;5119558;28;20171;-82
2021/12/07 08:25:09;;;;;;;3.20;1.00;;;7.00;99.90;;;;;;5119340;28;20201;-81
2021/12/07 08:27:35;;;;;;;3.57;1.07;;;7.00;99.90;;;;;;5096769;28;20175;-79
2021/12/07 08:30:05;;;;;;;2.77;0.97;;;6.90;99.90;;;;;;5111743;28;20202;-78
2021/12/07 08:32:31;;;;;;;2.10;1.10;;;6.90;99.90;;;;;;5096672;28;20167;-80
2021/12/07 08:34:57;;;;;;;2.53;1.00;;;7.00;99.90;;;;;;5099288;28;20175;-78
2021/12/07 08:37:23;;;;;;;5.33;1.47;;;6.90;99.90;;;;;;5065663;28;20243;-81
2021/12/07 08:39:49;;;;;;;5.43;1.50;;;6.80;99.90;;;;;;5094936;28;20211;-79
2021/12/07 08:42:15;;;;;;;3.70;1.30;;;6.70;99.90;;;;;;5094020;28;20176;-83
2021/12/07 08:44:41;;;;;;;1.87;0.93;;;6.60;99.90;;;;;;5077856;28;20182;-78
2021/12/07 08:47:09;;;;;;;5.60;1.37;;;6.90;99.90;;;;;;5062630;28;20178;-78
2021/12/07 08:49:35;;;;;;;9.80;3.63;;;6.90;99.90;;;;;;5058701;28;20325;-83
2021/12/07 08:52:02;;;;;;;3.47;1.33;;;6.80;99.90;;;;;;5094473;28;20510;-79
2021/12/07 08:59:44;;;;;;;2.80;1.20;;;6.90;99.90;;;;;;5091773;28;20212;-79
2021/12/07 09:02:20;;;;;;;5.37;1.40;;;7.10;99.90;;;;;;5057561;28;20642;-81
2021/12/07 09:04:47;;;;;;;5.50;1.00;;;7.20;99.90;;;;;;5057504;28;20253;-80
2021/12/07 09:07:14;;;;;;;4.70;1.87;;;7.20;99.90;;;;;;5092492;28;20297;-79
2021/12/07 09:09:43;;;;;;;9.60;2.40;;;7.10;99.90;;;;;;5090933;28;20595;-82
2021/12/07 09:12:14;;;;;;;4.63;1.37;;;7.10;99.90;;;;;;5060535;28;20196;-79
2021/12/07 09:14:42;;;;;;;2.30;0.90;;;7.20;99.90;;;;;;5097367;28;20582;-78
2021/12/07 09:17:10;;;;;;;3.03;0.90;;;7.00;99.90;;;;;;5093042;28;20188;-82
2021/12/07 09:19:38;;;;;;;1.87;0.70;;;7.20;99.90;;;;;;5096084;28;20172;-79
2021/12/07 09:22:05;;;;;;;3.73;1.10;;;7.20;99.90;;;;;;5094370;28;20626;-83
2021/12/07 09:24:31;;;;;;;2.20;0.90;;;7.10;99.90;;;;;;5100228;28;20218;-80
2021/12/07 09:26:57;;;;;;;4.47;1.47;;;7.30;99.90;;;;;;5117489;28;20176;-82
2021/12/07 09:29:23;;;;;;;1.87;1.03;;;7.40;99.90;;;;;;5113188;28;20178;-79
2021/12/07 09:31:52;;;;;;;4.93;1.30;;;7.40;99.90;;;;;;5115081;28;20206;-79
2021/12/07 09:34:27;;;;;;;1.80;0.90;;;7.50;99.90;;;;;;5104189;28;20598;-82
2021/12/07 09:36:55;;;;;;;2.43;1.00;;;7.50;99.90;;;;;;5118961;28;20594;-76
2021/12/07 09:39:21;;;;;;;3.73;1.23;;;7.50;99.90;;;;;;5085216;28;20199;-81
2021/12/07 09:41:47;;;;;;;6.30;0.90;;;7.50;99.90;;;;;;5117483;28;20220;-78
2021/12/07 09:44:14;;;;;;;2.73;0.97;;;7.20;99.90;;;;;;5116699;28;20547;-80
2021/12/07 09:46:41;;;;;;;3.67;1.00;;;7.00;99.90;;;;;;5116341;28;20167;-81
2021/12/07 09:49:08;;;;;;;1.80;1.00;;;7.30;99.90;;;;;;5116104;28;20227;-81
2021/12/07 09:51:35;;;;;;;2.77;1.00;;;7.30;99.90;;;;;;5116667;28;20251;-82
2021/12/07 09:54:03;;;;;;;1.90;1.03;;;7.30;99.90;;;;;;5099313;28;20171;-79
2021/12/07 09:56:28;;;;;;;1.73;0.87;;;7.10;99.90;;;;;;5117822;28;20179;-81
2021/12/07 09:58:59;;;;;;;2.63;1.03;;;6.90;99.90;;;;;;5097971;28;20198;-81
2021/12/07 10:01:29;;;;;;;3.47;1.37;;;7.10;99.90;;;;;;5116395;28;20646;-78
2021/12/07 10:03:57;;;;;;;9.50;6.20;;;7.30;99.90;;;;;;5097043;28;20250;-82
2021/12/07 10:06:24;;;;;;;3.10;1.30;;;7.20;99.90;;;;;;5080820;28;20178;-82
2021/12/07 10:08:50;;;;;;;12.17;4.37;;;7.30;99.90;;;;;;5101075;28;20512;-77
2021/12/07 10:11:17;;;;;;;6.43;1.97;;;7.50;99.90;;;;;;5097185;28;20218;-81
2021/12/07 10:13:45;;;;;;;2.80;1.00;;;7.70;99.90;;;;;;5081318;28;20194;-77
2021/12/07 10:16:14;;;;;;;3.90;1.00;;;7.60;99.90;;;;;;5101196;28;20179;-81
2021/12/07 10:18:42;;;;;;;4.30;0.97;;;7.40;99.90;;;;;;5123684;28;20175;-81
2021/12/07 10:21:17;;;;;;;1.23;0.80;;;7.30;99.90;;;;;;5121826;28;20187;-81
2021/12/07 10:23:53;;;;;;;5.33;1.20;;;7.40;99.90;;;;;;5118149;28;20174;-79
2021/12/07 10:26:25;;;;;;;2.07;0.57;;;7.50;99.90;;;;;;5116661;28;20238;-80
2021/12/07 10:29:00;;;;;;;4.40;1.00;;;7.40;99.90;;;;;;5081410;28;20187;-82
2021/12/07 10:31:44;;;;;;;5.83;1.00;;;7.50;99.90;;;;;;5098996;28;20211;-83
2021/12/07 10:34:15;;;;;;;4.07;1.10;;;7.60;99.90;;;;;;5098863;28;20701;-81
2021/12/07 10:36:48;;;;;;;1.43;0.97;;;7.70;99.90;;;;;;5099482;28;20221;-81
2021/12/07 10:39:24;;;;;;;1.57;0.90;;;7.30;99.90;;;;;;5114926;28;20258;-83
2021/12/07 10:41:58;;;;;;;6.13;1.40;;;7.50;99.90;;;;;;5099551;28;20163;-79
2021/12/07 10:44:41;;;;;;;5.43;0.80;;;7.50;99.90;;;;;;5116708;28;20177;-79
2021/12/07 10:47:12;;;;;;;5.83;1.10;;;7.50;99.90;;;;;;5099765;28;20180;-78
2021/12/07 10:49:56;;;;;;;1.93;0.90;;;7.60;99.90;;;;;;5114229;28;20693;-78
2021/12/07 10:52:30;;;;;;;4.43;1.00;;;7.70;99.90;;;;;;5116845;28;20175;-79
2021/12/07 10:55:10;;;;;;;1.63;0.80;;;7.80;99.90;;;;;;5100762;28;20179;-77
2021/12/07 10:57:44;;;;;;;4.10;1.10;;;7.80;99.90;;;;;;5116474;28;20604;-77
2021/12/07 11:00:21;;;;;;;2.03;1.17;;;8.10;99.90;;;;;;5100859;28;20171;-83
2021/12/07 11:02:57;;;;;;;5.93;1.40;;;8.00;99.90;;;;;;5117441;28;20539;-81
2021/12/07 11:05:33;;;;;;;7.37;1.47;;;8.20;99.90;;;;;;5120155;28;20171;-78
2021/12/07 11:08:01;;;;;;;6.40;1.40;;;8.30;99.90;;;;;;5117171;28;20174;-78
2021/12/07 11:10:31;;;;;;;8.47;1.20;;;8.30;99.90;;;;;;5115336;28;20742;-79
2021/12/07 11:13:15;;;;;;;4.43;1.00;;;8.00;99.90;;;;;;5118362;28;20171;-82
2021/12/07 11:15:56;;;;;;;2.57;1.07;;;8.10;99.90;;;;;;5115579;28;20175;-77
2021/12/07 11:18:22;;;;;;;1.50;1.23;;;8.10;99.90;;;;;;5100904;28;20594;-78
2021/12/07 11:20:49;;;;;;;3.23;0.90;;;8.00;99.90;;;;;;5119059;28;20175;-82
2021/12/07 11:23:28;;;;;;;10.20;0.90;;;8.20;99.90;;;;;;5091600;28;20179;-83
2021/12/07 11:31:35;;;;;;;2.40;0.90;;;8.00;99.90;;;;;;5095902;28;20196;-82
2021/12/07 11:34:12;;;;;;;6.60;1.13;;;7.90;99.90;;;;;;5078868;28;20225;-83
2021/12/07 11:36:41;;;;;;;3.47;0.70;;;7.80;99.90;;;;;;5077726;28;20210;-78
2021/12/07 11:39:31;;;;;;;4.83;0.83;;;7.90;99.90;;;;;;5095437;28;20176;-82
2021/12/07 11:42:12;;;;;;;1.90;0.87;;;7.60;99.90;;;;;;5080659;28;20180;-77
2021/12/07 11:44:59;;;;;;;2.13;1.00;;;7.90;99.90;;;;;;5061475;28;20180;-78
2021/12/07 11:47:46;;;;;;;1.40;1.00;;;8.10;99.90;;;;;;5095617;28;20251;-83
2021/12/07 11:50:38;;;;;;;1.90;0.63;;;8.30;99.90;;;;;;5106727;28;20233;-77
2021/12/07 11:53:08;;;;;;;4.40;1.20;;;8.60;99.90;;;;;;5098443;28;20175;-82
2021/12/07 11:55:36;;;;;;;3.13;1.27;;;8.70;99.90;;;;;;5098222;28;20166;-82
2021/12/07 11:58:04;;;;;;;2.77;1.10;;;8.70;99.90;;;;;;5112685;28;20213;-77
2021/12/07 12:00:35;;;;;;;2.73;0.90;;;8.80;99.90;;;;;;5115000;28;20538;-78
2021/12/07 12:03:06;;;;;;;3.47;1.00;;;8.50;99.90;;;;;;5094780;28;20618;-79
2021/12/07 12:05:32;;;;;;;0.90;0.60;;;8.30;99.90;;;;;;5076407;28;20186;-79
2021/12/07 12:07:58;;;;;;;1.47;0.70;;;8.30;99.90;;;;;;5077423;28;20550;-82
2021/12/07 12:10:26;;;;;;;2.50;0.60;;;8.10;99.90;;;;;;5110400;28;20213;-78
2021/12/07 12:13:09;;;;;;;3.53;0.90;;;8.30;99.90;;;;;;5110263;28;20246;-76
2021/12/07 12:15:47;;;;;;;5.67;1.20;;;8.60;99.90;;;;;;5112433;28;20671;-84
2021/12/07 12:18:23;;;;;;;3.83;1.23;;;8.80;99.90;;;;;;5114320;28;20158;-83
2021/12/07 12:21:08;;;;;;;9.20;4.00;;;8.90;99.90;;;;;;5109730;28;20544;-83
2021/12/07 12:23:56;;;;;;;5.70;1.20;;;8.70;99.90;;;;;;5093672;28;20185;-83
2021/12/07 12:26:27;;;;;;;5.50;1.70;;;8.70;99.90;;;;;;5092669;28;20198;-80
2021/12/07 12:28:54;;;;;;;2.90;0.87;;;8.80;99.90;;;;;;5095045;28;20235;-83
2021/12/07 12:31:41;;;;;;;2.73;1.07;;;8.70;99.90;;;;;;5098156;28;20229;-84
2021/12/07 12:34:25;;;;;;;5.70;0.90;;;9.10;99.90;;;;;;5095393;28;20178;-84
2021/12/07 12:37:14;;;;;;;4.50;1.03;;;9.30;99.90;;;;;;5094480;28;20212;-78
2021/12/07 12:39:52;;;;;;;3.30;1.10;;;9.50;99.90;;;;;;5111967;28;20215;-82
2021/12/07 12:42:38;;;;;;;2.27;0.90;;;9.30;99.90;;;;;;5109956;28;20186;-78
2021/12/07 12:45:26;;;;;;;0.93;0.70;;;8.90;99.90;;;;;;5110739;28;20178;-81
2021/12/07 12:48:07;;;;;;;4.80;1.17;;;8.90;99.90;;;;;;5109869;28;20170;-78
2021/12/07 12:50:46;;;;;;;4.13;1.30;;;8.90;99.90;;;;;;5092993;28;20208;-82
2021/12/07 12:53:26;;;;;;;3.90;1.23;;;9.00;99.90;;;;;;5110203;28;20171;-82
2021/12/07 12:56:18;;;;;;;3.67;0.93;;;9.10;99.90;;;;;;5112876;28;20151;-82
2021/12/07 12:58:48;;;;;;;3.17;1.20;;;8.90;99.90;;;;;;5090498;28;20241;-79
2021/12/07 13:01:25;;;;;;;5.27;1.30;;;9.10;99.90;;;;;;5110536;28;20201;-76
2021/12/07 13:03:57;;;;;;;3.00;1.00;;;9.30;99.90;;;;;;5095521;28;20175;-78
2021/12/07 13:06:43;;;;;;;3.10;1.23;;;9.30;99.90;;;;;;5110663;28;20250;-82
2021/12/07 13:09:18;;;;;;;5.97;1.17;;;9.30;99.90;;;;;;5093870;28;20182;-81
2021/12/07 13:11:53;;;;;;;6.23;2.00;;;9.40;99.90;;;;;;5114369;28;20235;-77
2021/12/07 13:14:22;;;;;;;5.87;1.73;;;8.90;99.90;;;;;;5116097;28;20199;-77
2021/12/07 13:17:23;;;;;;;9.13;2.10;;;8.90;99.90;;;;;;5117250;28;20167;-78
2021/12/07 13:20:16;;;;;;;5.03;1.17;;;8.80;99.90;;;;;;5092784;28;20201;-81
2021/12/07 13:23:02;;;;;;;6.13;0.93;;;9.00;99.90;;;;;;5087768;28;20953;-77
2021/12/07 13:25:48;;;;;;;1.83;1.00;;;8.80;99.90;;;;;;5114198;28;20703;-82
2021/12/07 13:28:22;;;;;;;5.37;0.90;;;8.90;99.90;;;;;;5116156;28;20199;-78
2021/12/07 13:30:52;;;;;;;3.97;1.33;;;8.80;99.90;;;;;;5081124;28;20233;-78
2021/12/07 13:33:39;;;;;;;8.07;1.40;;;8.80;99.90;;;;;;5098731;28;20722;-78
2021/12/07 13:36:27;;;;;;;7.53;1.23;;;8.80;99.90;;;;;;5114608;28;20164;-82
2021/12/07 13:38:53;;;;;;;4.13;1.47;;;8.60;99.90;;;;;;5114775;28;20597;-77
2021/12/07 13:41:20;;;;;;;3.53;1.40;;;8.40;99.90;;;;;;5079154;28;20191;-82
2021/12/07 13:43:49;;;;;;;3.57;0.93;;;8.70;99.90;;;;;;5114165;28;20700;-78
2021/12/07 13:46:22;;;;;;;1.57;0.87;;;8.60;99.90;;;;;;5080046;28;20553;-77
2021/12/07 13:48:51;;;;;;;3.50;0.70;;;8.60;99.90;;;;;;5097787;28;20175;-78
2021/12/07 13:51:20;;;;;;;3.20;1.03;;;8.50;99.90;;;;;;5096539;28;20207;-78
2021/12/07 13:53:47;;;;;;;2.60;0.90;;;8.50;99.90;;;;;;5114212;28;20199;-81
2021/12/07 13:56:14;;;;;;;2.90;0.70;;;8.70;99.90;;;;;;5099331;28;20186;-81
2021/12/07 13:59:06;;;;;;;3.00;1.00;;;8.40;99.90;;;;;;5113197;28;20174;-82
2021/12/07 14:01:34;;;;;;;0.93;0.60;;;8.40;99.90;;;;;;5099855;28;20188;-82
2021/12/07 14:04:00;;;;;;;2.83;1.00;;;8.30;99.90;;;;;;5079411;28;20317;-83
2021/12/07 14:06:27;;;;;;;1.93;1.13;;;8.30;99.90;;;;;;5113139;28;20182;-84
2021/12/07 14:08:53;;;;;;;2.77;1.00;;;8.30;99.90;;;;;;5096106;28;20250;-82
2021/12/07 14:11:20;;;;;;;9.83;1.10;;;8.40;99.90;;;;;;5114197;28;20214;-77
2021/12/07 14:13:49;;;;;;;3.03;1.00;;;8.40;99.90;;;;;;5078058;28;20705;-83
2021/12/07 14:16:21;;;;;;;2.00;0.70;;;8.20;99.90;;;;;;5080787;28;20212;-82
2021/12/07 14:18:47;;;;;;;1.50;0.73;;;8.00;99.90;;;;;;5113503;28;20207;-82
2021/12/07 14:21:13;;;;;;;2.33;0.90;;;8.00;99.90;;;;;;5112849;28;20678;-81
2021/12/07 14:23:51;;;;;;;2.00;0.73;;;8.00;99.90;;;;;;5096667;28;20312;-79
2021/12/07 14:26:19;;;;;;;3.20;1.17;;;8.00;99.90;;;;;;5113631;28;20581;-78
2021/12/07 14:28:47;;;;;;;1.97;0.93;;;7.90;99.90;;;;;;5114273;28;20175;-78
2021/12/07 14:31:19;;;;;;;3.33;1.17;;;8.20;99.90;;;;;;5097242;28;20206;-79
2021/12/07 14:33:52;;;;;;;2.53;0.80;;;8.20;99.90;;;;;;5113922;28;20248;-83
2021/12/07 14:36:21;;;;;;;3.77;1.23;;;8.10;99.90;;;;;;5114527;28;20171;-77
2021/12/07 14:38:52;;;;;;;3.73;1.10;;;8.00;99.90;;;;;;5113997;28;20543;-78
2021/12/07 14:41:21;;;;;;;1.77;0.90;;;8.00;99.90;;;;;;5113745;28;20186;-77
2021/12/07 14:43:47;;;;;;;3.27;0.80;;;8.00;99.90;;;;;;5097401;28;20190;-83
2021/12/07 14:46:15;;;;;;;1.73;0.80;;;8.00;99.90;;;;;;5063278;28;20175;-78
2021/12/07 14:48:43;;;;;;;4.87;0.90;;;7.80;99.90;;;;;;5096507;28;20180;-83
2021/12/07 14:51:13;;;;;;;2.83;0.73;;;7.90;99.90;;;;;;5114082;28;20293;-83
2021/12/07 14:53:43;;;;;;;3.43;0.70;;;7.80;99.90;;;;;;5096580;28;20483;-77
2021/12/07 14:56:18;;;;;;;3.27;1.37;;;7.50;99.90;;;;;;5113564;28;20171;-77
2021/12/07 14:58:46;;;;;;;1.50;1.17;;;7.80;99.90;;;;;;5113824;28;20259;-82